Time;durP1;ratioP1;P1;durP2;ratioP2;P2;SDS_P1;SDS_P2;PMS_P1;PMS_P2;Temp;Humidity;BMP_temperature;BMP_pressure;BME280_temperature;BME280_humidity;BME280_pressure;Samples;Min_cycle;Max_cycle;Signal;HPM_P1;HPM_P2
2022/02/14 00:00:10;;;;;;;10.83;8.00;;;5.20;78.30;;;;;;5025189;28;20470;-46
2022/02/14 00:02:38;;;;;;;11.53;8.30;;;5.20;78.20;;;;;;5029075;28;20474;-45
2022/02/14 00:05:05;;;;;;;9.13;7.43;;;5.20;78.10;;;;;;5025244;28;20892;-46
2022/02/14 00:07:32;;;;;;;13.70;7.40;;;5.20;77.90;;;;;;5026581;28;20900;-46
2022/02/14 00:09:59;;;;;;;8.47;6.13;;;5.10;78.10;;;;;;5027401;28;20493;-45
2022/02/14 00:12:25;;;;;;;10.13;7.33;;;5.10;78.20;;;;;;5027627;28;20494;-46
2022/02/14 00:14:52;;;;;;;10.47;8.10;;;5.10;78.30;;;;;;5027881;28;20542;-46
2022/02/14 00:17:20;;;;;;;10.47;7.53;;;5.00;78.40;;;;;;5016549;28;20578;-45
2022/02/14 00:19:50;;;;;;;7.90;6.57;;;5.10;78.50;;;;;;5009052;28;20460;-45
2022/02/14 00:22:21;;;;;;;9.90;7.67;;;5.10;78.50;;;;;;5025681;28;20475;-46
2022/02/14 00:24:52;;;;;;;7.50;6.77;;;5.10;78.10;;;;;;5027642;28;20546;-46
2022/02/14 00:27:20;;;;;;;8.83;7.10;;;5.10;77.90;;;;;;5026470;28;20466;-46
2022/02/14 00:29:48;;;;;;;7.93;6.47;;;5.20;77.40;;;;;;5010490;28;20466;-45
2022/02/14 00:32:20;;;;;;;10.60;7.30;;;5.20;77.20;;;;;;5024587;28;20464;-45
2022/02/14 00:34:48;;;;;;;10.13;7.13;;;5.20;77.40;;;;;;5027954;28;20491;-46
2022/02/14 00:37:16;;;;;;;10.27;6.73;;;5.20;77.60;;;;;;5026166;28;20882;-46
2022/02/14 00:39:43;;;;;;;9.00;7.50;;;5.20;77.60;;;;;;5010551;28;20459;-46
2022/02/14 00:42:11;;;;;;;7.43;6.23;;;5.20;77.60;;;;;;5026528;28;21002;-46
2022/02/14 00:44:37;;;;;;;7.83;6.33;;;5.20;77.00;;;;;;5009597;28;20470;-46
2022/02/14 00:47:04;;;;;;;9.03;7.10;;;5.30;76.40;;;;;;5028064;28;20510;-46
2022/02/14 00:49:31;;;;;;;8.67;7.10;;;5.30;76.50;;;;;;5026178;28;20988;-46
2022/02/14 00:51:58;;;;;;;7.90;6.20;;;5.30;76.20;;;;;;5026725;28;20523;-46
2022/02/14 00:54:25;;;;;;;10.07;6.47;;;5.30;76.00;;;;;;5026719;28;20459;-46
2022/02/14 00:56:52;;;;;;;7.07;5.43;;;5.30;76.10;;;;;;5025571;28;20475;-46
2022/02/14 00:59:18;;;;;;;8.87;6.07;;;5.30;76.10;;;;;;5026596;28;20462;-46
2022/02/14 01:01:45;;;;;;;9.03;6.10;;;5.30;76.10;;;;;;5027465;28;20887;-46
2022/02/14 01:04:14;;;;;;;7.27;5.60;;;5.30;75.80;;;;;;5009743;28;20459;-45
2022/02/14 01:06:41;;;;;;;9.03;8.20;;;5.20;75.80;;;;;;5025429;28;20459;-45
2022/02/14 01:09:09;;;;;;;7.60;5.67;;;5.20;75.70;;;;;;5010147;28;20461;-45
2022/02/14 01:11:36;;;;;;;7.80;5.70;;;5.20;75.50;;;;;;5026395;28;21034;-45
2022/02/14 01:14:03;;;;;;;8.30;5.90;;;5.20;75.40;;;;;;5028443;28;20952;-46
2022/02/14 01:16:29;;;;;;;10.20;5.90;;;5.20;75.30;;;;;;5028791;28;20973;-46
2022/02/14 01:18:58;;;;;;;10.53;5.90;;;5.20;75.10;;;;;;5025493;28;20462;-45
2022/02/14 01:21:25;;;;;;;7.10;5.00;;;5.30;75.20;;;;;;5008194;28;20459;-46
2022/02/14 01:23:52;;;;;;;7.17;6.10;;;5.30;74.90;;;;;;5026245;28;20459;-46
2022/02/14 01:26:19;;;;;;;8.40;6.00;;;5.30;74.80;;;;;;5024570;28;20976;-45
2022/02/14 01:28:46;;;;;;;8.60;5.93;;;5.30;74.80;;;;;;5026972;28;20459;-45
2022/02/14 01:31:12;;;;;;;7.60;5.13;;;5.30;74.60;;;;;;5027435;28;20498;-45
2022/02/14 01:33:39;;;;;;;7.77;5.37;;;5.30;74.30;;;;;;5024843;28;20590;-46
2022/02/14 01:36:06;;;;;;;7.40;5.83;;;5.40;74.20;;;;;;5025019;28;20542;-46
2022/02/14 01:38:33;;;;;;;10.43;5.93;;;5.40;74.30;;;;;;5025185;28;20464;-45
2022/02/14 01:41:00;;;;;;;6.67;5.57;;;5.30;74.30;;;;;;5026241;28;20554;-46
2022/02/14 01:43:27;;;;;;;8.27;5.57;;;5.30;74.50;;;;;;5026188;28;20467;-46
2022/02/14 01:45:53;;;;;;;7.43;5.10;;;5.30;74.80;;;;;;4988596;28;21000;-46
2022/02/14 01:48:20;;;;;;;8.10;6.10;;;5.30;74.50;;;;;;5010515;28;20485;-46
2022/02/14 01:50:47;;;;;;;5.60;4.90;;;5.20;74.50;;;;;;5024907;28;20574;-46
2022/02/14 01:53:15;;;;;;;7.80;5.67;;;5.20;74.50;;;;;;5025950;28;20470;-45
2022/02/14 01:55:42;;;;;;;7.63;5.83;;;5.30;74.20;;;;;;5010427;28;20463;-46
2022/02/14 01:58:09;;;;;;;10.60;5.90;;;5.20;74.50;;;;;;5024017;28;20455;-46
2022/02/14 02:00:37;;;;;;;8.13;5.23;;;5.20;74.70;;;;;;5025462;28;20475;-46
2022/02/14 02:03:04;;;;;;;6.23;5.50;;;5.20;74.80;;;;;;5024625;28;20462;-45
2022/02/14 02:05:31;;;;;;;7.77;5.77;;;5.20;74.90;;;;;;5024248;28;20817;-46
2022/02/14 02:07:58;;;;;;;7.50;5.73;;;5.20;75.00;;;;;;5025548;28;20459;-46
2022/02/14 02:10:26;;;;;;;5.57;4.87;;;5.20;75.00;;;;;;5025095;28;20691;-46
2022/02/14 02:12:56;;;;;;;9.50;6.13;;;5.20;75.20;;;;;;5026063;28;20945;-46
2022/02/14 02:15:24;;;;;;;10.07;6.23;;;5.10;75.40;;;;;;5016868;28;21004;-45
2022/02/14 02:17:50;;;;;;;8.20;5.57;;;5.20;75.30;;;;;;5024520;28;20858;-46
2022/02/14 02:20:18;;;;;;;8.40;5.90;;;5.10;75.30;;;;;;4999208;28;20838;-46
2022/02/14 02:22:47;;;;;;;6.80;5.83;;;5.10;75.10;;;;;;5024257;28;20956;-47
2022/02/14 02:25:15;;;;;;;8.67;5.93;;;5.10;74.90;;;;;;5018886;28;20459;-46
2022/02/14 02:27:43;;;;;;;9.23;5.90;;;5.10;74.60;;;;;;5024948;28;20491;-45
2022/02/14 02:30:13;;;;;;;8.30;6.00;;;5.10;74.50;;;;;;5023008;28;20944;-46
2022/02/14 02:32:41;;;;;;;5.67;4.83;;;5.10;74.40;;;;;;5024738;28;20472;-47
2022/02/14 02:35:08;;;;;;;8.23;5.30;;;5.20;74.50;;;;;;5009306;28;21810;-46
2022/02/14 02:37:38;;;;;;;7.70;5.90;;;5.20;74.50;;;;;;5023783;28;20463;-45
2022/02/14 02:40:06;;;;;;;6.13;4.43;;;5.10;74.30;;;;;;5023305;28;20959;-45
2022/02/14 02:42:33;;;;;;;5.10;4.60;;;5.10;74.00;;;;;;5022250;28;20459;-45
2022/02/14 02:44:59;;;;;;;5.97;4.20;;;5.10;73.90;;;;;;5024714;28;20467;-46
2022/02/14 02:47:27;;;;;;;7.83;5.30;;;5.20;73.60;;;;;;5023840;28;20502;-46
2022/02/14 02:49:54;;;;;;;5.40;4.90;;;5.20;73.60;;;;;;5022252;28;20470;-46
2022/02/14 02:52:21;;;;;;;8.80;5.43;;;5.20;73.70;;;;;;5023156;28;20533;-46
2022/02/14 02:54:48;;;;;;;5.80;4.60;;;5.20;73.50;;;;;;5023577;28;20452;-46
2022/02/14 02:57:15;;;;;;;5.00;4.60;;;5.30;73.60;;;;;;5023083;28;20455;-46
2022/02/14 02:59:43;;;;;;;6.33;5.73;;;5.30;73.90;;;;;;5023844;28;20463;-46
2022/02/14 03:02:11;;;;;;;7.73;5.67;;;5.20;74.10;;;;;;4974758;28;20502;-46
2022/02/14 03:04:39;;;;;;;5.83;5.23;;;5.20;74.10;;;;;;5008486;28;20912;-46
2022/02/14 03:07:05;;;;;;;6.33;4.93;;;5.10;74.40;;;;;;5022758;28;21071;-46
2022/02/14 03:09:32;;;;;;;6.17;4.70;;;5.10;74.70;;;;;;5023414;28;20827;-46
2022/02/14 03:12:00;;;;;;;7.60;5.20;;;5.10;74.60;;;;;;5010685;28;20589;-46
2022/02/14 03:14:27;;;;;;;6.20;5.00;;;5.10;74.50;;;;;;5007463;28;20554;-45
2022/02/14 03:16:54;;;;;;;5.90;4.53;;;5.10;74.60;;;;;;5009769;28;20535;-46
2022/02/14 03:19:21;;;;;;;5.30;4.80;;;5.00;74.60;;;;;;5025869;28;20452;-46
2022/02/14 03:21:49;;;;;;;6.77;4.93;;;5.00;74.90;;;;;;5023471;28;20975;-47
2022/02/14 03:24:16;;;;;;;9.57;5.50;;;5.00;74.60;;;;;;5009708;28;20980;-46
2022/02/14 03:26:43;;;;;;;6.20;5.60;;;4.90;74.90;;;;;;5027448;28;20470;-46
2022/02/14 03:29:12;;;;;;;6.77;5.67;;;5.00;75.10;;;;;;5026952;28;20894;-45
2022/02/14 03:31:39;;;;;;;9.70;6.07;;;4.90;75.00;;;;;;5027394;28;20585;-46
2022/02/14 03:34:07;;;;;;;10.90;4.90;;;4.90;74.90;;;;;;5029198;28;20912;-46
2022/02/14 03:36:34;;;;;;;5.67;4.40;;;4.90;75.00;;;;;;5026267;28;20451;-46
2022/02/14 03:39:02;;;;;;;5.33;4.80;;;4.90;75.30;;;;;;5024093;28;20827;-46
2022/02/14 03:41:29;;;;;;;6.40;4.73;;;4.90;75.10;;;;;;5028375;28;20475;-47
2022/02/14 03:43:56;;;;;;;6.90;5.13;;;4.90;74.90;;;;;;5027160;28;20463;-46
2022/02/14 03:46:23;;;;;;;9.00;5.63;;;4.90;74.80;;;;;;5024729;28;20494;-46
2022/02/14 03:48:50;;;;;;;7.50;5.40;;;4.90;74.70;;;;;;5026239;28;20476;-46
2022/02/14 03:51:17;;;;;;;7.07;4.60;;;4.80;74.80;;;;;;5026063;28;21098;-46
2022/02/14 03:53:43;;;;;;;5.70;4.60;;;4.80;75.30;;;;;;5014993;28;20805;-46
2022/02/14 03:56:10;;;;;;;5.53;4.90;;;4.70;75.40;;;;;;5024992;28;20466;-46
2022/02/14 03:58:37;;;;;;;11.73;5.30;;;4.70;75.50;;;;;;5019989;28;20467;-46
2022/02/14 04:01:04;;;;;;;5.30;4.43;;;4.60;75.70;;;;;;5028152;28;20546;-45
2022/02/14 04:03:31;;;;;;;6.83;5.10;;;4.60;75.70;;;;;;5025899;28;20491;-47
2022/02/14 04:05:58;;;;;;;9.20;4.40;;;4.60;75.70;;;;;;5025602;28;20463;-46
2022/02/14 04:08:25;;;;;;;7.60;5.10;;;4.60;76.00;;;;;;5028914;28;20467;-46
2022/02/14 04:10:53;;;;;;;6.83;4.57;;;4.50;75.90;;;;;;5023891;28;20463;-46
2022/02/14 04:13:21;;;;;;;7.07;5.10;;;4.50;75.90;;;;;;5022893;28;20551;-45
2022/02/14 04:15:48;;;;;;;5.43;4.60;;;4.50;76.10;;;;;;5011568;28;20978;-47
2022/02/14 04:18:15;;;;;;;5.40;4.70;;;4.50;76.20;;;;;;5025140;28;20451;-46
2022/02/14 04:20:42;;;;;;;7.80;5.30;;;4.40;76.10;;;;;;5026120;28;20510;-46
2022/02/14 04:23:09;;;;;;;7.67;5.57;;;4.40;76.30;;;;;;5027514;28;20551;-46
2022/02/14 04:25:36;;;;;;;6.90;5.40;;;4.40;76.30;;;;;;5027391;28;20467;-46
2022/02/14 04:28:03;;;;;;;5.03;4.43;;;4.40;76.40;;;;;;5023964;28;20467;-46
2022/02/14 04:30:31;;;;;;;6.23;5.17;;;4.40;76.30;;;;;;5004612;28;20462;-46
2022/02/14 04:33:01;;;;;;;9.73;5.13;;;4.40;76.40;;;;;;5025192;28;20586;-46
2022/02/14 04:35:32;;;;;;;7.60;4.70;;;4.40;76.60;;;;;;5026370;28;20509;-46
2022/02/14 04:37:59;;;;;;;5.50;4.70;;;4.40;76.60;;;;;;5028429;28;21123;-46
2022/02/14 04:40:31;;;;;;;6.50;5.67;;;4.40;76.70;;;;;;5024492;28;20459;-46
2022/02/14 04:42:59;;;;;;;6.23;4.50;;;4.40;76.70;;;;;;5025535;28;20990;-45
2022/02/14 04:45:27;;;;;;;5.60;4.90;;;4.40;76.70;;;;;;5012486;28;20980;-46
2022/02/14 04:47:55;;;;;;;4.63;4.17;;;4.50;76.40;;;;;;5008087;28;21795;-46
2022/02/14 04:50:22;;;;;;;7.47;5.23;;;4.60;75.90;;;;;;5023818;28;20550;-46
2022/02/14 04:52:49;;;;;;;8.57;5.03;;;4.50;75.80;;;;;;5002133;28;20858;-45
2022/02/14 04:55:16;;;;;;;7.13;5.53;;;4.50;76.20;;;;;;5025272;28;20455;-45
2022/02/14 04:57:43;;;;;;;5.20;4.70;;;4.40;76.50;;;;;;5024560;28;20986;-46
2022/02/14 05:00:13;;;;;;;8.03;5.37;;;4.40;76.60;;;;;;5026022;28;20468;-45
2022/02/14 05:02:41;;;;;;;6.33;5.43;;;4.40;76.50;;;;;;5022874;28;20473;-46
2022/02/14 05:05:08;;;;;;;15.47;6.10;;;4.40;76.50;;;;;;5027425;28;20992;-47
2022/02/14 05:07:36;;;;;;;6.53;5.80;;;4.40;76.50;;;;;;5010416;28;20871;-47
2022/02/14 05:10:06;;;;;;;6.00;4.77;;;4.30;76.70;;;;;;5020049;28;20471;-46
2022/02/14 05:12:33;;;;;;;10.03;5.27;;;4.30;76.70;;;;;;5025767;28;20497;-46
2022/02/14 05:14:59;;;;;;;6.67;5.40;;;4.20;76.90;;;;;;5024499;28;20547;-46
2022/02/14 05:17:26;;;;;;;6.83;4.90;;;4.20;76.90;;;;;;5006536;28;20467;-46
2022/02/14 05:19:53;;;;;;;7.23;5.73;;;4.20;76.90;;;;;;5009034;28;20459;-46
2022/02/14 05:22:20;;;;;;;9.83;5.87;;;4.20;76.80;;;;;;5024047;28;20457;-47
2022/02/14 05:24:46;;;;;;;7.50;5.93;;;4.20;76.80;;;;;;5025742;28;21010;-46
2022/02/14 05:27:13;;;;;;;6.83;6.13;;;4.10;77.00;;;;;;5026098;28;20563;-46
2022/02/14 05:29:40;;;;;;;8.90;5.90;;;4.10;77.20;;;;;;5023185;28;20885;-46
2022/02/14 05:32:08;;;;;;;9.37;6.27;;;4.10;77.30;;;;;;5020820;28;20499;-46
2022/02/14 05:34:35;;;;;;;7.73;5.80;;;4.00;77.50;;;;;;5008353;28;20979;-46
2022/02/14 05:37:02;;;;;;;7.93;6.53;;;4.10;77.50;;;;;;5025480;28;20494;-46
2022/02/14 05:39:30;;;;;;;5.90;5.30;;;4.10;77.40;;;;;;5025226;28;21097;-46
2022/02/14 05:41:57;;;;;;;6.90;5.90;;;4.10;77.40;;;;;;5026619;28;20456;-48
2022/02/14 05:44:24;;;;;;;7.83;6.00;;;4.10;77.90;;;;;;5004380;28;20471;-46
2022/02/14 05:46:51;;;;;;;8.97;6.17;;;4.10;78.30;;;;;;5022889;28;20491;-46
2022/02/14 05:49:17;;;;;;;10.60;6.50;;;4.10;78.40;;;;;;5024870;28;20829;-46
2022/02/14 05:51:44;;;;;;;8.83;6.17;;;4.10;78.50;;;;;;5023966;28;20590;-46
2022/02/14 05:54:11;;;;;;;9.00;6.70;;;4.10;78.70;;;;;;5024893;28;20461;-46
2022/02/14 05:56:38;;;;;;;7.50;5.67;;;4.10;78.70;;;;;;5024019;28;20470;-47
2022/02/14 05:59:05;;;;;;;10.83;6.70;;;4.10;78.80;;;;;;5025506;28;21129;-47
2022/02/14 06:01:31;;;;;;;10.47;6.27;;;4.10;78.90;;;;;;5021787;28;20551;-47
2022/02/14 06:03:58;;;;;;;9.13;6.13;;;4.10;79.10;;;;;;5022684;28;20839;-46
2022/02/14 06:06:25;;;;;;;7.30;5.60;;;4.10;79.20;;;;;;5020389;28;20464;-46
2022/02/14 06:08:52;;;;;;;7.73;6.13;;;4.20;79.30;;;;;;5006670;28;20463;-46
2022/02/14 06:11:19;;;;;;;6.03;5.40;;;4.20;79.20;;;;;;5023266;28;20474;-45
2022/02/14 06:13:46;;;;;;;8.60;5.47;;;4.30;78.90;;;;;;5002833;28;20479;-46
2022/02/14 06:16:12;;;;;;;11.90;5.83;;;4.30;78.60;;;;;;5021072;28;20467;-46
2022/02/14 06:18:39;;;;;;;6.77;5.50;;;4.40;78.50;;;;;;5023294;28;20459;-46
2022/02/14 06:21:06;;;;;;;7.53;5.90;;;4.50;78.10;;;;;;5016343;28;20456;-46
2022/02/14 06:23:33;;;;;;;7.43;6.20;;;4.50;78.10;;;;;;5020734;28;20475;-46
2022/02/14 06:26:03;;;;;;;7.40;5.80;;;4.50;78.00;;;;;;5040026;28;20497;-49
2022/02/14 06:28:31;;;;;;;7.87;5.43;;;4.60;77.90;;;;;;5019619;28;20458;-49
2022/02/14 06:30:58;;;;;;;10.30;5.30;;;4.60;77.50;;;;;;5038071;28;20558;-48
2022/02/14 06:33:25;;;;;;;8.43;5.03;;;4.70;77.40;;;;;;5021620;28;20491;-48
2022/02/14 06:35:52;;;;;;;7.63;5.07;;;4.70;77.20;;;;;;5036532;28;20526;-48
2022/02/14 06:38:19;;;;;;;8.80;6.00;;;4.70;77.10;;;;;;5037995;28;20471;-49
2022/02/14 06:40:46;;;;;;;8.37;7.53;;;4.80;76.90;;;;;;5037423;28;20835;-49
2022/02/14 06:43:13;;;;;;;10.30;7.03;;;4.80;76.60;;;;;;5040206;28;20542;-49
2022/02/14 06:45:39;;;;;;;13.00;7.10;;;4.90;76.40;;;;;;5024757;28;20542;-49
2022/02/14 06:48:06;;;;;;;9.50;5.40;;;4.90;76.40;;;;;;5022616;28;20550;-49
2022/02/14 06:50:36;;;;;;;8.40;6.33;;;5.00;76.20;;;;;;5037467;28;20548;-50
2022/02/14 06:53:02;;;;;;;6.87;5.57;;;5.00;76.00;;;;;;5034451;28;20495;-49
2022/02/14 06:55:29;;;;;;;8.90;5.33;;;5.10;75.60;;;;;;5037100;28;21010;-48
2022/02/14 06:57:56;;;;;;;6.07;5.47;;;5.10;75.30;;;;;;5040048;28;20491;-49
2022/02/14 07:00:23;;;;;;;7.03;5.73;;;5.10;75.40;;;;;;5042137;28;20601;-48
2022/02/14 07:02:51;;;;;;;9.07;6.80;;;5.20;75.60;;;;;;5023283;28;20459;-47
2022/02/14 07:05:21;;;;;;;7.80;6.67;;;5.20;75.50;;;;;;5041581;28;20535;-49
2022/02/14 07:07:49;;;;;;;8.63;6.20;;;5.30;75.40;;;;;;5042623;28;20459;-48
2022/02/14 07:10:17;;;;;;;8.80;5.77;;;5.30;75.20;;;;;;5024106;28;20554;-49
2022/02/14 07:12:44;;;;;;;7.53;6.77;;;5.20;75.40;;;;;;5043505;28;20577;-48
2022/02/14 07:15:12;;;;;;;7.70;6.87;;;5.20;75.70;;;;;;5044507;28;20461;-49
2022/02/14 07:17:40;;;;;;;6.60;5.90;;;5.10;75.90;;;;;;5044195;28;20463;-49
2022/02/14 07:20:08;;;;;;;8.90;6.93;;;5.10;76.30;;;;;;5044554;28;20583;-48
2022/02/14 07:22:35;;;;;;;11.00;6.13;;;5.20;76.10;;;;;;5044201;28;20458;-49
2022/02/14 07:25:02;;;;;;;9.43;6.20;;;5.20;76.30;;;;;;5044318;28;20463;-49
2022/02/14 07:27:32;;;;;;;10.57;6.30;;;5.10;76.60;;;;;;5044887;28;20479;-48
2022/02/14 07:29:59;;;;;;;8.57;7.17;;;5.10;76.90;;;;;;5032995;28;20555;-47
2022/02/14 07:32:25;;;;;;;8.37;6.47;;;5.10;77.00;;;;;;5031628;28;20562;-49
2022/02/14 07:34:53;;;;;;;8.27;6.33;;;5.10;77.10;;;;;;5044266;28;20471;-49
2022/02/14 07:37:20;;;;;;;11.83;6.50;;;5.10;77.30;;;;;;5044319;28;21011;-47
2022/02/14 07:39:46;;;;;;;8.93;7.27;;;5.20;77.30;;;;;;5044461;28;20459;-49
2022/02/14 07:42:13;;;;;;;12.40;7.13;;;5.20;77.60;;;;;;5045615;28;20473;-49
2022/02/14 07:44:40;;;;;;;8.47;6.40;;;5.20;77.70;;;;;;5025699;28;20565;-48
2022/02/14 07:47:07;;;;;;;9.17;7.07;;;5.20;77.80;;;;;;5042773;28;20493;-49
2022/02/14 07:49:34;;;;;;;10.40;6.83;;;5.20;77.90;;;;;;5045045;28;20484;-48
2022/02/14 07:52:01;;;;;;;10.57;7.47;;;5.20;78.20;;;;;;5028819;28;20848;-50
2022/02/14 07:54:27;;;;;;;8.37;6.83;;;5.20;78.40;;;;;;5043472;28;20474;-48
2022/02/14 07:56:54;;;;;;;9.87;7.47;;;5.20;78.50;;;;;;5045296;28;20447;-48
2022/02/14 07:59:21;;;;;;;9.50;7.13;;;5.30;78.60;;;;;;5027203;28;20463;-49
2022/02/14 08:01:48;;;;;;;16.13;7.70;;;5.40;78.50;;;;;;5041572;28;20489;-48
2022/02/14 08:04:14;;;;;;;11.70;8.40;;;5.40;78.50;;;;;;5043547;28;20463;-48
2022/02/14 08:06:41;;;;;;;10.87;7.57;;;5.50;78.50;;;;;;5024752;28;20461;-48
2022/02/14 08:09:11;;;;;;;11.00;7.97;;;5.60;78.50;;;;;;5025969;28;20522;-48
2022/02/14 08:11:38;;;;;;;8.20;7.40;;;5.60;78.60;;;;;;5025267;28;20887;-49
2022/02/14 08:14:05;;;;;;;9.53;7.10;;;5.60;78.60;;;;;;5040405;28;20594;-48
2022/02/14 08:16:33;;;;;;;10.93;7.27;;;5.70;78.60;;;;;;5026770;28;20527;-54
2022/02/14 08:19:01;;;;;;;11.37;7.57;;;5.70;78.60;;;;;;5041793;28;20455;-48
2022/02/14 08:21:29;;;;;;;9.33;6.83;;;5.80;78.60;;;;;;5023807;28;20463;-47
2022/02/14 08:23:56;;;;;;;7.70;6.40;;;5.80;78.60;;;;;;5043557;28;20551;-49
2022/02/14 08:26:23;;;;;;;7.80;5.63;;;5.90;78.60;;;;;;5037441;28;20483;-48
2022/02/14 08:28:49;;;;;;;9.40;7.20;;;5.90;78.70;;;;;;5041879;28;20461;-48
2022/02/14 08:31:16;;;;;;;10.03;7.30;;;6.00;78.90;;;;;;5023845;28;20699;-48
2022/02/14 08:33:44;;;;;;;12.33;7.70;;;6.10;78.80;;;;;;5044054;28;20518;-48
2022/02/14 08:36:15;;;;;;;9.63;7.53;;;6.10;78.80;;;;;;5042774;28;20452;-48
2022/02/14 08:38:41;;;;;;;6.30;5.47;;;6.20;78.30;;;;;;5028301;28;20448;-49
2022/02/14 08:41:08;;;;;;;9.37;5.37;;;6.30;76.30;;;;;;5027234;28;20526;-48
2022/02/14 08:43:35;;;;;;;8.00;5.50;;;6.30;75.50;;;;;;5042002;28;20486;-49
2022/02/14 08:46:04;;;;;;;7.90;5.10;;;6.30;75.40;;;;;;5043781;28;20931;-48
2022/02/14 08:48:31;;;;;;;5.90;5.30;;;6.40;75.10;;;;;;5043678;28;20512;-49
2022/02/14 08:50:58;;;;;;;7.83;5.50;;;6.50;74.90;;;;;;5043620;28;20507;-49
2022/02/14 08:53:31;;;;;;;6.20;5.00;;;6.60;74.60;;;;;;5028754;28;20512;-49
2022/02/14 08:55:59;;;;;;;5.50;4.90;;;6.60;74.50;;;;;;5037413;28;20574;-49
2022/02/14 08:58:28;;;;;;;6.73;5.13;;;6.70;74.40;;;;;;5043002;28;20514;-49
2022/02/14 09:00:55;;;;;;;7.87;4.93;;;6.80;74.30;;;;;;5040239;28;20446;-48
2022/02/14 09:03:22;;;;;;;10.20;5.67;;;6.90;74.20;;;;;;5028543;28;20467;-49
2022/02/14 09:05:49;;;;;;;5.80;5.20;;;7.00;74.00;;;;;;5043537;28;20477;-48
2022/02/14 09:08:15;;;;;;;5.50;4.60;;;7.10;73.80;;;;;;5047175;28;20447;-49
2022/02/14 09:10:42;;;;;;;7.10;5.47;;;7.20;73.90;;;;;;5042569;28;20467;-48
2022/02/14 09:13:09;;;;;;;6.97;5.07;;;7.20;74.00;;;;;;5043130;28;20483;-48
2022/02/14 09:15:37;;;;;;;8.20;5.50;;;7.30;73.90;;;;;;5045740;28;20463;-48
2022/02/14 09:18:04;;;;;;;6.10;4.40;;;7.30;73.70;;;;;;5042788;28;20976;-49
2022/02/14 09:20:31;;;;;;;13.50;5.93;;;7.40;73.40;;;;;;5028098;28;20448;-48
2022/02/14 09:23:00;;;;;;;7.97;4.87;;;7.50;73.20;;;;;;5043223;28;20459;-48
2022/02/14 09:25:27;;;;;;;8.07;5.70;;;7.60;72.90;;;;;;5031073;28;20455;-49
2022/02/14 09:27:54;;;;;;;7.50;5.17;;;7.60;72.70;;;;;;5029324;28;20459;-49
2022/02/14 09:30:21;;;;;;;7.17;6.57;;;7.60;72.70;;;;;;5043250;28;20467;-49
2022/02/14 09:32:48;;;;;;;5.67;5.07;;;7.70;72.50;;;;;;5038309;28;20595;-48
2022/02/14 09:35:26;;;;;;;7.33;4.90;;;7.70;72.60;;;;;;5046713;28;20471;-48
2022/02/14 09:37:57;;;;;;;6.17;5.13;;;7.80;72.50;;;;;;5030853;28;20435;-48
2022/02/14 09:40:25;;;;;;;7.63;5.97;;;7.80;72.50;;;;;;5042033;28;20452;-48
2022/02/14 09:43:08;;;;;;;8.10;5.70;;;7.90;72.30;;;;;;5031261;28;20467;-49
2022/02/14 09:45:35;;;;;;;6.67;4.93;;;7.90;72.10;;;;;;5045454;28;20523;-48
2022/02/14 09:48:06;;;;;;;7.90;5.27;;;7.90;71.90;;;;;;5026293;28;20495;-48
2022/02/14 09:50:34;;;;;;;5.77;5.13;;;7.90;71.90;;;;;;5034762;28;20513;-48
2022/02/14 09:53:04;;;;;;;6.13;5.30;;;8.00;71.90;;;;;;5030178;28;20486;-48
2022/02/14 09:55:31;;;;;;;6.27;4.77;;;8.00;72.00;;;;;;5045311;28;20894;-48
2022/02/14 09:57:58;;;;;;;7.30;5.10;;;8.00;72.10;;;;;;5043969;28;20494;-48
2022/02/14 10:00:25;;;;;;;6.80;4.70;;;8.10;72.10;;;;;;5032001;28;20478;-49
2022/02/14 10:03:09;;;;;;;5.53;5.00;;;8.10;72.20;;;;;;5029026;28;20496;-49
2022/02/14 10:05:48;;;;;;;6.80;5.13;;;8.10;72.30;;;;;;5047127;28;20547;-48
2022/02/14 10:08:24;;;;;;;7.20;5.60;;;8.10;72.40;;;;;;5045492;28;20463;-48
2022/02/14 10:10:54;;;;;;;7.70;5.03;;;8.10;72.60;;;;;;5046506;28;20455;-50
2022/02/14 10:13:35;;;;;;;7.00;5.63;;;8.20;72.80;;;;;;5045692;28;20491;-48
2022/02/14 10:16:15;;;;;;;7.27;5.17;;;8.30;73.60;;;;;;5046967;28;20448;-49
2022/02/14 10:18:42;;;;;;;7.03;4.90;;;8.30;73.80;;;;;;5042731;28;20471;-48
2022/02/14 10:21:25;;;;;;;7.47;5.63;;;8.40;74.30;;;;;;5045771;28;20455;-49
2022/02/14 10:24:04;;;;;;;5.27;4.60;;;8.40;74.40;;;;;;5029728;28;20452;-48
2022/02/14 10:26:35;;;;;;;7.43;5.43;;;8.50;74.90;;;;;;5042856;28;20462;-49
2022/02/14 10:29:12;;;;;;;7.90;5.30;;;8.60;74.90;;;;;;5026863;28;20488;-49
2022/02/14 10:31:59;;;;;;;8.83;5.27;;;8.60;75.00;;;;;;5044364;28;20503;-49
2022/02/14 10:34:37;;;;;;;7.30;6.17;;;8.70;75.00;;;;;;5043316;28;20490;-48
2022/02/14 10:37:12;;;;;;;7.33;4.87;;;8.70;75.20;;;;;;5043467;28;20456;-49
2022/02/14 10:39:40;;;;;;;10.50;5.70;;;8.70;75.40;;;;;;5044196;28;20474;-49
2022/02/14 10:42:31;;;;;;;9.60;5.40;;;8.80;75.60;;;;;;5044215;28;20456;-48
2022/02/14 10:45:08;;;;;;;8.80;5.37;;;8.90;75.40;;;;;;5045984;28;20436;-49
2022/02/14 10:47:41;;;;;;;8.43;5.80;;;9.00;75.30;;;;;;5020896;28;20479;-49
2022/02/14 10:50:18;;;;;;;11.90;6.03;;;9.10;75.10;;;;;;5046289;28;20509;-48
2022/02/14 10:52:52;;;;;;;6.70;6.00;;;9.20;75.20;;;;;;5044937;28;20801;-49
2022/02/14 10:55:28;;;;;;;10.07;6.30;;;9.30;75.00;;;;;;5044379;28;20489;-48
2022/02/14 10:57:57;;;;;;;10.60;6.63;;;9.30;74.80;;;;;;5014259;28;20459;-48
2022/02/14 11:00:26;;;;;;;10.90;6.50;;;9.30;74.80;;;;;;5026372;28;20490;-48
2022/02/14 11:02:57;;;;;;;9.87;6.27;;;9.30;74.70;;;;;;5041834;28;20447;-49
2022/02/14 11:05:26;;;;;;;16.40;7.10;;;9.30;74.70;;;;;;5042116;28;20451;-49
2022/02/14 11:07:54;;;;;;;12.50;6.60;;;9.40;74.80;;;;;;5040736;28;20490;-48
2022/02/14 11:10:22;;;;;;;11.70;7.60;;;9.40;74.90;;;;;;5044644;28;20967;-48
2022/02/14 11:12:54;;;;;;;10.70;8.37;;;9.50;74.80;;;;;;5043777;28;20947;-48
2022/02/14 11:15:41;;;;;;;15.13;7.13;;;9.50;74.70;;;;;;5027548;28;20526;-48
2022/02/14 11:18:13;;;;;;;10.60;6.40;;;9.50;74.70;;;;;;5042933;28;20448;-48
2022/02/14 11:20:41;;;;;;;18.10;6.70;;;9.60;74.80;;;;;;5041028;28;20494;-49
2022/02/14 11:23:10;;;;;;;14.00;6.50;;;9.60;75.50;;;;;;5042460;28;20542;-48
2022/02/14 11:26:05;;;;;;;14.30;7.33;;;9.60;75.70;;;;;;5043310;28;20501;-49
2022/02/14 11:28:41;;;;;;;6.67;5.77;;;9.70;76.30;;;;;;5041648;28;20470;-49
2022/02/14 11:31:13;;;;;;;6.73;5.60;;;9.70;76.40;;;;;;5042656;28;20460;-48
2022/02/14 11:33:41;;;;;;;10.17;7.20;;;9.70;76.60;;;;;;5041049;28;20855;-49
2022/02/14 11:36:10;;;;;;;12.73;7.50;;;9.70;77.40;;;;;;5024513;28;20483;-49
2022/02/14 11:38:50;;;;;;;8.60;7.30;;;9.70;77.40;;;;;;5040344;28;22996;-48
2022/02/14 11:41:36;;;;;;;10.40;5.60;;;9.80;77.60;;;;;;5040774;28;20485;-49
2022/02/14 11:44:16;;;;;;;7.20;5.30;;;9.90;76.70;;;;;;5044033;28;20477;-48
2022/02/14 11:46:55;;;;;;;11.63;5.53;;;9.90;76.40;;;;;;5020396;28;20501;-48
2022/02/14 11:49:34;;;;;;;8.93;5.50;;;9.90;75.90;;;;;;5030351;28;20451;-49
2022/02/14 11:52:26;;;;;;;7.20;5.40;;;9.90;75.70;;;;;;5046047;28;20514;-48
2022/02/14 11:54:54;;;;;;;5.80;5.17;;;9.90;76.00;;;;;;5044138;28;20487;-49
2022/02/14 11:57:22;;;;;;;7.00;5.27;;;9.90;76.10;;;;;;5045404;28;20463;-49
2022/02/14 11:59:50;;;;;;;6.40;5.57;;;10.00;76.20;;;;;;5042541;28;20486;-49
2022/02/14 12:02:29;;;;;;;10.77;6.63;;;10.00;75.50;;;;;;5031454;28;20470;-49
2022/02/14 12:04:56;;;;;;;7.43;6.57;;;10.00;75.20;;;;;;5038419;28;20901;-48
2022/02/14 12:07:27;;;;;;;9.67;6.30;;;10.00;73.90;;;;;;5045283;28;20543;-48
2022/02/14 12:09:57;;;;;;;13.13;7.00;;;10.00;73.60;;;;;;5044851;28;20554;-48
2022/02/14 12:12:45;;;;;;;9.50;5.83;;;10.00;73.60;;;;;;5043521;28;20448;-48
2022/02/14 12:20:34;;;;;;;11.67;6.17;;;10.00;73.60;;;;;;5046029;28;21012;-48
2022/02/14 12:21:16;;;;;;;12.53;6.30;;;10.10;73.60;;;;;;5046409;28;20479;-49
2022/02/14 12:24:16;;;;;;;10.20;6.10;;;10.10;73.40;;;;;;5042527;28;20459;-49
2022/02/14 12:26:54;;;;;;;7.63;6.10;;;10.20;74.10;;;;;;5026469;28;20628;-49
2022/02/14 12:29:35;;;;;;;8.00;5.23;;;10.30;73.70;;;;;;5044329;28;20502;-48
2022/02/14 12:32:09;;;;;;;13.13;6.33;;;10.40;73.90;;;;;;5043785;28;20463;-49
2022/02/14 12:34:37;;;;;;;8.57;6.40;;;10.50;73.30;;;;;;5043562;28;20547;-49
2022/02/14 12:37:07;;;;;;;12.47;5.53;;;10.60;73.20;;;;;;5026323;28;20457;-49
2022/02/14 12:39:45;;;;;;;7.13;6.20;;;10.70;73.20;;;;;;5044977;28;20534;-49
2022/02/14 12:42:19;;;;;;;8.63;5.43;;;10.80;73.00;;;;;;5044561;28;20466;-49
2022/02/14 12:44:47;;;;;;;11.80;6.77;;;10.90;72.40;;;;;;5042852;28;20483;-48
2022/02/14 12:47:16;;;;;;;8.87;6.20;;;11.00;72.50;;;;;;5028170;28;20526;-48
2022/02/14 12:50:02;;;;;;;7.90;6.40;;;10.90;72.40;;;;;;5042504;28;20479;-49
2022/02/14 12:52:29;;;;;;;13.97;6.33;;;10.90;72.60;;;;;;5045267;28;20512;-49
2022/02/14 12:54:59;;;;;;;14.53;7.27;;;10.90;72.80;;;;;;5038687;28;20490;-48
2022/02/14 12:57:46;;;;;;;9.30;5.93;;;10.80;72.80;;;;;;5042174;28;20736;-49
2022/02/14 13:00:22;;;;;;;8.90;6.40;;;10.70;73.10;;;;;;5027859;28;20937;-49
2022/02/14 13:02:53;;;;;;;10.73;6.13;;;10.70;73.30;;;;;;5043314;28;20542;-48
2022/02/14 13:05:21;;;;;;;10.27;6.27;;;10.60;73.70;;;;;;5029863;28;21293;-49